Time;durP1;ratioP1;P1;durP2;ratioP2;P2;SDS_P1;SDS_P2;PMS_P1;PMS_P2;Temp;Humidity;BMP_temperature;BMP_pressure;BME280_temperature;BME280_humidity;BME280_pressure;Samples;Min_cycle;Max_cycle;Signal;HPM_P1;HPM_P2
2021/04/26 00:00:51;;;;;;;4.05;0.88;;;;;;;3.22;67.12;102709.44;5070572;28;20044;-48
2021/04/26 00:03:18;;;;;;;3.92;1.02;;;;;;;3.18;67.38;102710.94;5070040;28;20067;-51
2021/04/26 00:05:45;;;;;;;4.00;0.90;;;;;;;3.15;67.75;102707.72;5070771;28;20401;-49
2021/04/26 00:08:13;;;;;;;3.10;0.73;;;;;;;3.12;67.76;102711.75;5052452;28;20447;-50
2021/04/26 00:10:40;;;;;;;3.65;0.85;;;;;;;3.09;67.99;102703.88;5070368;28;20076;-48
2021/04/26 00:13:07;;;;;;;3.97;1.13;;;;;;;3.04;68.03;102701.72;5070402;28;20045;-48
2021/04/26 00:15:42;;;;;;;4.28;0.80;;;;;;;2.99;68.10;102698.75;5070103;28;20126;-47
2021/04/26 00:18:09;;;;;;;3.95;0.90;;;;;;;2.97;68.27;102697.25;5070179;28;20429;-47
2021/04/26 00:20:36;;;;;;;3.15;0.80;;;;;;;2.94;68.43;102695.75;5070851;28;20435;-48
2021/04/26 00:23:04;;;;;;;4.43;1.02;;;;;;;2.92;68.62;102697.84;5069530;28;20097;-50
2021/04/26 00:25:32;;;;;;;2.80;0.70;;;;;;;2.89;68.78;102692.72;5070193;28;20490;-51
2021/04/26 00:28:00;;;;;;;2.58;0.80;;;;;;;2.87;68.56;102694.00;5070533;28;20052;-46
2021/04/26 00:30:27;;;;;;;6.10;1.02;;;;;;;2.85;68.80;102691.44;5069725;28;20560;-49
2021/04/26 00:32:54;;;;;;;3.53;0.60;;;;;;;2.84;68.90;102695.25;5071082;28;20565;-49
2021/04/26 00:35:22;;;;;;;2.47;0.82;;;;;;;2.83;68.87;102699.06;5074369;28;20470;-46
2021/04/26 00:37:50;;;;;;;3.42;0.60;;;;;;;2.84;69.11;102705.41;5073048;28;20493;-49
2021/04/26 00:40:18;;;;;;;4.13;0.70;;;;;;;2.83;69.02;102704.56;5074133;28;20447;-46
2021/04/26 00:42:46;;;;;;;3.33;0.80;;;;;;;2.82;69.13;102696.50;5073916;28;20127;-45
2021/04/26 00:45:16;;;;;;;3.30;0.90;;;;;;;2.81;69.33;102703.91;5073365;28;20041;-46
2021/04/26 00:47:45;;;;;;;3.05;0.70;;;;;;;2.81;69.24;102700.31;5073506;28;20147;-45
2021/04/26 00:50:14;;;;;;;2.72;0.50;;;;;;;2.81;69.39;102694.78;5056048;28;20045;-45
2021/04/26 00:52:45;;;;;;;2.60;0.40;;;;;;;2.79;69.21;102694.16;5072937;28;20420;-46
2021/04/26 00:55:13;;;;;;;3.90;0.70;;;;;;;2.79;69.43;102688.66;5073879;28;20060;-45
2021/04/26 00:57:41;;;;;;;2.45;0.50;;;;;;;2.81;69.94;102686.53;5073479;28;20048;-48
2021/04/26 01:00:11;;;;;;;1.73;0.60;;;;;;;2.81;69.89;102675.50;5072726;28;20543;-48
2021/04/26 01:02:40;;;;;;;3.22;0.88;;;;;;;2.80;69.63;102680.16;5073979;28;20497;-49
2021/04/26 01:05:10;;;;;;;2.30;0.50;;;;;;;2.81;69.88;102681.84;5072671;28;20063;-47
2021/04/26 01:07:39;;;;;;;;;;;;;;;2.74;70.22;102668.06;5074120;28;20142;-45
2021/04/26 01:10:10;;;;;;;6.90;1.10;;;;;;;2.73;70.15;102682.03;5073306;28;19920;-46
2021/04/26 01:12:51;;;;;;;2.67;0.52;;;;;;;2.75;70.48;102675.28;5073036;28;20041;-48
2021/04/26 01:15:24;;;;;;;2.05;0.65;;;;;;;2.77;70.28;102672.31;5073252;28;20544;-47
2021/04/26 01:17:56;;;;;;;1.75;0.55;;;;;;;2.76;70.33;102670.63;5073614;28;20489;-48
2021/04/26 01:21:07;;;;;;;2.35;0.75;;;;;;;2.77;70.24;102666.81;5072478;28;20125;-48
2021/04/26 01:24:01;;;;;;;1.88;0.50;;;;;;;2.72;70.45;102661.91;5055254;28;20048;-47
2021/04/26 01:26:34;;;;;;;2.85;0.70;;;;;;;2.69;70.73;102662.28;5071683;28;20044;-49
2021/04/26 01:29:09;;;;;;;2.45;0.47;;;;;;;2.68;70.63;102654.22;5073163;28;20156;-48
2021/04/26 01:31:51;;;;;;;1.65;0.45;;;;;;;2.67;70.71;102656.13;5055477;28;20076;-46
2021/04/26 01:34:20;;;;;;;2.92;0.82;;;;;;;2.66;71.09;102656.34;5073066;28;20041;-49
2021/04/26 01:37:01;;;;;;;3.15;0.80;;;;;;;2.67;70.87;102655.28;5054830;28;20052;-50
2021/04/26 01:39:30;;;;;;;2.38;0.70;;;;;;;2.67;70.95;102649.75;5073021;28;20127;-48
2021/04/26 01:41:59;;;;;;;4.20;0.80;;;;;;;2.67;70.70;102650.63;5072522;28;20032;-47
2021/04/26 01:44:26;;;;;;;2.47;0.60;;;;;;;2.67;70.93;102650.63;5054330;28;20072;-47
2021/04/26 01:46:53;;;;;;;2.97;0.63;;;;;;;2.65;71.44;102646.34;5054573;28;20061;-48
2021/04/26 01:49:22;;;;;;;1.98;0.70;;;;;;;2.64;71.65;102645.50;5054400;28;20056;-46
2021/04/26 01:51:50;;;;;;;3.42;0.90;;;;;;;2.65;71.31;102641.69;5072486;28;20108;-47
2021/04/26 01:54:17;;;;;;;3.20;0.77;;;;;;;2.65;71.55;102638.09;5072296;28;20052;-47
2021/04/26 01:56:46;;;;;;;3.92;0.70;;;;;;;2.65;71.67;102630.69;5054545;28;20080;-48
2021/04/26 01:59:18;;;;;;;3.63;1.10;;;;;;;2.65;71.61;102635.34;5055012;28;20102;-48
2021/04/26 02:01:46;;;;;;;3.65;0.80;;;;;;;2.68;72.00;102632.19;5071733;28;20071;-46
2021/04/26 02:04:14;;;;;;;3.13;0.60;;;;;;;2.69;71.40;102639.41;5072522;28;20045;-46
2021/04/26 02:07:12;;;;;;;3.33;0.80;;;;;;;2.72;72.08;102636.25;5072346;28;20048;-47
2021/04/26 02:10:05;;;;;;;3.58;0.80;;;;;;;2.73;72.01;102632.44;5071751;28;20056;-48
2021/04/26 02:12:33;;;;;;;3.30;0.90;;;;;;;2.76;71.98;102632.88;5070955;28;20448;-49
2021/04/26 02:15:02;;;;;;;2.88;0.70;;;;;;;2.80;72.06;102633.28;5054483;28;20052;-49
2021/04/26 02:17:29;;;;;;;2.33;0.60;;;;;;;2.83;72.02;102627.38;5053666;28;20052;-46
2021/04/26 02:19:57;;;;;;;4.00;1.05;;;;;;;2.87;71.97;102622.31;5054275;28;20048;-49
2021/04/26 02:22:26;;;;;;;3.42;0.70;;;;;;;2.88;72.24;102619.34;5071208;28;20493;-47
2021/04/26 02:24:56;;;;;;;2.33;0.70;;;;;;;2.88;72.03;102619.34;5054082;28;20044;-47
2021/04/26 02:27:23;;;;;;;1.80;0.50;;;;;;;2.90;72.09;102610.88;5071723;28;20052;-47
2021/04/26 02:29:52;;;;;;;2.60;0.60;;;;;;;2.92;72.47;102614.28;5071561;28;20044;-45
2021/04/26 02:32:24;;;;;;;3.17;0.68;;;;;;;2.92;72.44;102615.13;5053865;28;20044;-48
2021/04/26 02:35:13;;;;;;;2.67;0.63;;;;;;;2.88;72.33;102602.81;5052102;28;20057;-47
2021/04/26 02:37:49;;;;;;;4.65;0.80;;;;;;;2.89;72.36;102609.16;5065727;28;20045;-46
2021/04/26 02:40:18;;;;;;;2.38;0.75;;;;;;;2.90;72.99;102606.22;5071948;28;20580;-45
2021/04/26 02:42:53;;;;;;;2.92;0.80;;;;;;;2.92;72.79;102604.09;5053711;28;20559;-48
2021/04/26 02:45:25;;;;;;;4.78;0.80;;;;;;;2.97;72.58;102600.72;5053134;28;20084;-49
2021/04/26 02:47:53;;;;;;;;;;;;;;;2.94;72.93;102590.97;5053683;28;20492;-47
2021/04/26 02:50:25;;;;;;;2.15;0.50;;;;;;;2.93;72.81;102586.50;5053008;28;19920;-46
2021/04/26 02:53:12;;;;;;;1.52;0.55;;;;;;;3.01;73.10;102588.22;5053295;28;20139;-48
2021/04/26 02:55:40;;;;;;;4.60;0.80;;;;;;;3.08;72.64;102589.94;5052756;28;20131;-48
2021/04/26 02:58:09;;;;;;;4.63;0.73;;;;;;;3.13;72.80;102577.44;5070796;28;20051;-47
2021/04/26 03:00:37;;;;;;;2.88;0.60;;;;;;;3.19;72.83;102577.47;5071184;28;20080;-50
2021/04/26 03:03:31;;;;;;;3.22;0.82;;;;;;;3.21;72.73;102568.97;5032719;28;20052;-48
2021/04/26 03:06:03;;;;;;;2.85;0.80;;;;;;;3.26;72.31;102567.28;5070632;28;20127;-49
2021/04/26 03:08:35;;;;;;;2.60;0.80;;;;;;;3.30;72.41;102573.25;5071082;28;20067;-48
2021/04/26 03:11:05;;;;;;;3.05;0.60;;;;;;;3.32;72.49;102571.13;5071115;28;20048;-48
2021/04/26 03:13:35;;;;;;;2.03;0.60;;;;;;;3.35;72.43;102570.72;5052706;28;20106;-49
2021/04/26 03:16:03;;;;;;;3.38;0.77;;;;;;;3.37;72.27;102560.31;5071092;28;20055;-49
2021/04/26 03:18:31;;;;;;;3.55;0.70;;;;;;;3.40;72.56;102554.34;5052447;28;20138;-49
2021/04/26 03:21:02;;;;;;;2.95;0.60;;;;;;;3.44;72.45;102558.41;5071071;28;20045;-46
2021/04/26 03:23:30;;;;;;;1.95;0.60;;;;;;;3.47;72.49;102558.81;5052740;28;20059;-52
2021/04/26 03:26:00;;;;;;;3.38;0.80;;;;;;;3.50;72.41;102551.19;5052660;28;20166;-47
2021/04/26 03:28:29;;;;;;;2.60;0.80;;;;;;;3.51;72.27;102550.97;5070906;28;20103;-49
2021/04/26 03:31:02;;;;;;;2.45;0.70;;;;;;;3.53;72.63;102540.59;5053191;28;20483;-50
2021/04/26 03:33:49;;;;;;;4.88;0.70;;;;;;;3.53;72.34;102548.00;5052869;28;20060;-51
2021/04/26 03:36:17;;;;;;;1.52;0.55;;;;;;;3.56;72.53;102551.22;5053196;28;20048;-47
2021/04/26 03:38:47;;;;;;;1.88;0.70;;;;;;;3.58;72.64;102542.72;5052722;28;20044;-49
2021/04/26 03:41:15;;;;;;;2.38;0.70;;;;;;;3.60;72.71;102535.03;5052452;28;20044;-50
2021/04/26 03:43:43;;;;;;;2.05;0.68;;;;;;;3.65;72.37;102538.03;5052604;28;20557;-49
2021/04/26 03:46:12;;;;;;;2.97;0.60;;;;;;;3.68;72.55;102532.94;5070940;28;20060;-48
2021/04/26 03:49:05;;;;;;;2.40;0.70;;;;;;;3.73;72.62;102535.91;5065799;28;20056;-52
2021/04/26 03:51:51;;;;;;;2.50;0.70;;;;;;;3.78;72.55;102532.53;5071085;28;20050;-50
2021/04/26 03:54:18;;;;;;;2.17;0.60;;;;;;;3.84;72.44;102533.56;5070181;28;20045;-47
2021/04/26 03:56:46;;;;;;;2.92;0.70;;;;;;;3.90;72.54;102532.72;5070696;28;20440;-49
2021/04/26 03:59:15;;;;;;;1.30;0.60;;;;;;;3.92;72.35;102525.91;5070854;28;20428;-48
2021/04/26 04:01:43;;;;;;;2.70;0.70;;;;;;;3.96;72.49;102534.63;5051632;28;20510;-49
2021/04/26 04:04:10;;;;;;;2.85;0.60;;;;;;;3.98;72.11;102532.50;5052519;28;20055;-50
2021/04/26 04:07:04;;;;;;;2.45;0.75;;;;;;;3.99;72.14;102520.41;5053732;28;20048;-51
2021/04/26 04:09:54;;;;;;;1.77;0.50;;;;;;;4.00;72.09;102524.81;5073424;28;20052;-50
2021/04/26 04:12:37;;;;;;;2.75;0.52;;;;;;;4.00;72.09;102519.31;5056340;28;20470;-46
2021/04/26 04:15:10;;;;;;;1.98;0.70;;;;;;;3.99;71.92;102512.97;5073251;28;20044;-47
2021/04/26 04:17:39;;;;;;;2.15;0.50;;;;;;;3.99;71.94;102509.34;5073847;28;20052;-46
2021/04/26 04:20:08;;;;;;;2.78;0.60;;;;;;;3.98;71.65;102510.41;5073551;28;20047;-46
2021/04/26 04:22:38;;;;;;;5.28;0.85;;;;;;;3.94;71.91;102506.38;5054842;28;20075;-49
2021/04/26 04:25:07;;;;;;;3.22;0.70;;;;;;;3.91;71.88;102507.66;5073097;28;20056;-48
2021/04/26 04:27:35;;;;;;;3.22;0.60;;;;;;;3.89;71.95;102511.69;5056200;28;20064;-45
2021/04/26 04:30:13;;;;;;;3.03;0.60;;;;;;;3.87;72.04;102513.81;5073495;28;20099;-48
2021/04/26 04:32:58;;;;;;;2.83;0.52;;;;;;;3.81;72.12;102512.75;5064860;28;20054;-47
2021/04/26 04:35:44;;;;;;;1.88;0.50;;;;;;;3.79;72.24;102507.47;5073913;28;20459;-47
2021/04/26 04:38:30;;;;;;;4.05;0.90;;;;;;;3.79;72.15;102506.63;5067383;28;20174;-46
2021/04/26 04:41:23;;;;;;;2.80;0.60;;;;;;;3.77;71.93;102509.59;5054814;28;20040;-51
2021/04/26 04:43:51;;;;;;;3.45;0.50;;;;;;;3.77;71.82;102509.59;5055543;28;20053;-50
2021/04/26 04:46:20;;;;;;;3.22;0.70;;;;;;;3.77;71.94;102511.50;5055568;28;20050;-48
2021/04/26 04:48:57;;;;;;;3.15;0.60;;;;;;;3.76;71.78;102509.81;5073937;28;20142;-50
2021/04/26 04:51:26;;;;;;;3.97;0.85;;;;;;;3.75;71.62;102506.19;5073209;28;20051;-51
2021/04/26 04:53:58;;;;;;;1.88;0.57;;;;;;;3.74;71.55;102498.13;5056090;28;20049;-48
2021/04/26 04:56:33;;;;;;;4.55;0.90;;;;;;;3.72;71.60;102501.09;5055787;28;20044;-47
2021/04/26 04:59:00;;;;;;;2.08;0.60;;;;;;;3.70;71.45;102494.94;5073161;28;20049;-48
2021/04/26 05:01:28;;;;;;;3.40;0.70;;;;;;;3.72;71.51;102489.19;5055325;28;20527;-48
2021/04/26 05:04:14;;;;;;;2.92;0.63;;;;;;;3.70;71.26;102494.06;5073374;28;20059;-46
2021/04/26 05:06:59;;;;;;;1.70;0.52;;;;;;;3.70;71.14;102496.84;5073808;28;20174;-47
2021/04/26 05:09:45;;;;;;;3.00;0.50;;;;;;;3.72;71.32;102495.56;5073572;28;20063;-47
2021/04/26 05:12:31;;;;;;;1.60;0.50;;;;;;;3.76;71.35;102499.59;5073201;28;20066;-49
2021/04/26 05:15:15;;;;;;;2.63;0.60;;;;;;;3.81;71.19;102494.25;5055510;28;20064;-46
2021/04/26 05:17:43;;;;;;;2.20;0.60;;;;;;;3.87;71.06;102492.56;5073136;28;20048;-47
2021/04/26 05:20:12;;;;;;;2.05;0.60;;;;;;;3.96;71.00;102490.44;5072026;28;20421;-48
2021/04/26 05:22:39;;;;;;;1.95;0.40;;;;;;;4.04;70.88;102491.03;5055350;28;20448;-48
2021/04/26 05:25:08;;;;;;;1.45;0.60;;;;;;;4.12;70.83;102489.97;5054889;28;20052;-47
2021/04/26 05:27:38;;;;;;;1.60;0.65;;;;;;;4.18;70.84;102483.59;5055297;28;20080;-46
2021/04/26 05:30:09;;;;;;;5.13;1.02;;;;;;;4.26;70.79;102491.63;5073036;28;20040;-47
2021/04/26 05:32:37;;;;;;;6.28;0.93;;;;;;;4.33;70.70;102491.63;5054973;28;20099;-49
2021/04/26 05:35:13;;;;;;;4.32;0.85;;;;;;;4.41;70.71;102483.91;5071977;28;20386;-48
2021/04/26 05:37:45;;;;;;;3.97;0.80;;;;;;;4.48;70.20;102490.28;5055018;28;20395;-49
2021/04/26 05:40:15;;;;;;;3.35;0.80;;;;;;;4.57;70.13;102498.31;5054752;28;20438;-49
2021/04/26 05:42:43;;;;;;;3.78;0.75;;;;;;;4.64;70.33;102485.31;5054719;28;20063;-50
2021/04/26 05:45:12;;;;;;;4.97;1.25;;;;;;;4.71;70.04;102488.91;5054685;28;20055;-48
2021/04/26 05:47:39;;;;;;;4.60;1.05;;;;;;;4.79;69.78;102483.13;5072126;28;20102;-50
2021/04/26 05:50:06;;;;;;;5.45;1.00;;;;;;;4.88;69.48;102487.31;5072883;28;20045;-49
2021/04/26 05:52:34;;;;;;;3.85;0.80;;;;;;;4.96;69.54;102487.06;5072740;28;20055;-48
2021/04/26 05:55:01;;;;;;;3.05;0.52;;;;;;;5.04;69.24;102483.16;5072024;28;20114;-48
2021/04/26 05:57:28;;;;;;;3.28;0.90;;;;;;;5.11;69.20;102476.53;5072733;28;20095;-47
2021/04/26 05:59:56;;;;;;;3.53;0.75;;;;;;;5.20;68.89;102480.69;5072367;28;20080;-50
2021/04/26 06:02:23;;;;;;;3.95;1.38;;;;;;;5.28;69.01;102473.22;5072170;28;20077;-46
2021/04/26 06:04:50;;;;;;;4.70;0.80;;;;;;;5.36;68.71;102476.56;5069160;28;20774;-45
2021/04/26 06:07:17;;;;;;;6.68;1.10;;;;;;;5.44;68.15;102479.03;5071779;28;20067;-47
2021/04/26 06:09:45;;;;;;;5.85;1.40;;;;;;;5.53;68.15;102486.00;5072204;28;20051;-48
2021/04/26 06:12:12;;;;;;;3.63;0.88;;;;;;;5.62;67.61;102474.63;5072337;28;20044;-49
2021/04/26 06:14:39;;;;;;;4.78;1.10;;;;;;;5.71;67.47;102476.88;5071723;28;20443;-49
2021/04/26 06:17:06;;;;;;;6.57;1.05;;;;;;;5.80;66.82;102481.03;5072234;28;20566;-48
2021/04/26 06:19:33;;;;;;;3.42;1.00;;;;;;;5.89;66.76;102473.34;5071621;28;20044;-49
2021/04/26 06:22:00;;;;;;;4.40;1.00;;;;;;;5.97;66.12;102473.06;5071480;28;20609;-47
2021/04/26 06:24:27;;;;;;;6.35;1.10;;;;;;;6.05;65.82;102469.97;5071790;28;20488;-47
2021/04/26 06:26:54;;;;;;;3.10;1.13;;;;;;;6.12;65.52;102465.19;5071885;28;20130;-48
2021/04/26 06:29:21;;;;;;;3.15;1.02;;;;;;;6.19;64.89;102477.03;5070737;28;20036;-52
2021/04/26 06:31:48;;;;;;;3.63;1.00;;;;;;;6.26;64.76;102474.19;5072031;28;20108;-48
2021/04/26 06:34:15;;;;;;;4.55;1.00;;;;;;;6.30;64.28;102472.66;5068848;28;20127;-48
2021/04/26 06:36:42;;;;;;;4.30;1.00;;;;;;;6.35;64.21;102471.97;5070942;28;20116;-50
2021/04/26 06:39:10;;;;;;;3.50;0.85;;;;;;;6.42;63.96;102476.34;5053982;28;20055;-49
2021/04/26 06:41:37;;;;;;;6.40;0.98;;;;;;;6.50;63.67;102478.81;5071703;28;20090;-48
2021/04/26 06:44:05;;;;;;;4.55;1.10;;;;;;;6.60;63.04;102469.09;5070968;28;20080;-45
2021/04/26 06:46:33;;;;;;;4.40;1.02;;;;;;;6.69;62.84;102482.41;5071199;28;20560;-49
2021/04/26 06:49:00;;;;;;;5.55;1.02;;;;;;;6.88;62.67;102474.91;5053994;28;20098;-49
2021/04/26 06:51:27;;;;;;;6.38;1.00;;;;;;;7.04;61.95;102463.13;5070699;28;20497;-46
2021/04/26 06:53:54;;;;;;;6.38;0.90;;;;;;;7.13;61.07;102469.19;5071634;28;20086;-49
2021/04/26 06:56:22;;;;;;;6.18;1.20;;;;;;;7.16;60.78;102477.06;5071375;28;20045;-47
2021/04/26 06:58:49;;;;;;;1.92;0.80;;;;;;;7.15;60.55;102476.22;5071421;28;20051;-46
2021/04/26 07:01:16;;;;;;;4.22;0.85;;;;;;;7.13;60.52;102474.75;5070896;28;20123;-48
2021/04/26 07:03:46;;;;;;;4.22;0.93;;;;;;;7.14;60.63;102476.44;5070796;28;20467;-48
2021/04/26 07:06:13;;;;;;;4.70;0.93;;;;;;;7.19;60.26;102469.06;5071008;28;20123;-47
2021/04/26 07:08:40;;;;;;;4.22;0.90;;;;;;;7.25;60.13;102476.47;5071337;28;20633;-46
2021/04/26 07:11:07;;;;;;;8.60;1.23;;;;;;;7.33;59.87;102477.22;5070484;28;20493;-47
2021/04/26 07:13:34;;;;;;;5.57;0.90;;;;;;;7.39;59.97;102465.16;5071364;28;20174;-47
2021/04/26 07:16:01;;;;;;;4.97;1.00;;;;;;;7.45;59.64;102464.19;5070788;28;20463;-48
2021/04/26 07:18:29;;;;;;;4.22;1.00;;;;;;;7.52;59.43;102462.16;5070504;28;20044;-47
2021/04/26 07:20:56;;;;;;;4.05;1.00;;;;;;;7.59;59.22;102460.94;5071166;28;20490;-49
2021/04/26 07:23:23;;;;;;;5.25;1.05;;;;;;;7.67;59.31;102467.22;5070992;28;20044;-49
2021/04/26 07:25:50;;;;;;;3.72;0.82;;;;;;;7.71;59.02;102455.41;5070428;28;20074;-47
2021/04/26 07:28:17;;;;;;;3.53;0.77;;;;;;;7.87;58.40;102457.44;5071075;28;20111;-47
2021/04/26 07:30:43;;;;;;;5.03;1.10;;;;;;;7.97;57.83;102456.84;5071050;28;20501;-47
2021/04/26 07:33:10;;;;;;;6.20;1.30;;;;;;;8.04;57.69;102462.28;5069881;28;20517;-48
2021/04/26 07:35:38;;;;;;;3.65;1.02;;;;;;;8.12;57.31;102462.75;5070754;28;20098;-48
2021/04/26 07:38:05;;;;;;;3.90;1.15;;;;;;;8.31;57.18;102457.88;5070651;28;20044;-47
2021/04/26 07:40:32;;;;;;;4.90;1.00;;;;;;;8.46;56.50;102452.69;5052485;28;20048;-49
2021/04/26 07:42:59;;;;;;;6.32;1.30;;;;;;;8.54;56.04;102455.09;5070303;28;20040;-46
2021/04/26 07:45:26;;;;;;;3.38;0.85;;;;;;;8.54;55.76;102451.47;5070929;28;20135;-49
2021/04/26 07:47:55;;;;;;;3.50;1.00;;;;;;;8.50;55.60;102453.03;5070206;28;20052;-48
2021/04/26 07:50:22;;;;;;;6.65;1.05;;;;;;;8.48;55.63;102453.28;5071054;28;20047;-47
2021/04/26 07:52:50;;;;;;;7.40;1.23;;;;;;;8.45;55.74;102448.19;5069821;28;20453;-49
2021/04/26 07:55:17;;;;;;;4.72;1.20;;;;;;;8.46;55.19;102444.34;5070614;28;20052;-46
2021/04/26 07:57:44;;;;;;;4.38;1.30;;;;;;;8.47;55.36;102446.03;5070493;28;20052;-48
2021/04/26 08:00:12;;;;;;;4.72;1.10;;;;;;;8.46;55.56;102444.34;5070042;28;20101;-48
2021/04/26 08:02:39;;;;;;;6.05;1.25;;;;;;;8.48;55.39;102436.59;5070134;28;20036;-49
2021/04/26 08:05:12;;;;;;;6.00;1.00;;;;;;;8.49;55.63;102437.44;5070592;28;20473;-48
2021/04/26 08:07:39;;;;;;;5.45;1.13;;;;;;;8.54;55.61;102434.75;5051827;28;20060;-48
2021/04/26 08:10:08;;;;;;;7.00;1.25;;;;;;;8.58;55.36;102428.47;5070516;28;20106;-48
2021/04/26 08:12:35;;;;;;;5.50;1.27;;;;;;;8.69;55.60;102431.44;5070312;28;20074;-46
2021/04/26 08:15:02;;;;;;;6.00;1.05;;;;;;;8.75;55.17;102416.53;5069696;28;20124;-47
2021/04/26 08:17:28;;;;;;;5.18;1.20;;;;;;;8.81;55.41;102416.34;5070578;28;20072;-47
2021/04/26 08:19:55;;;;;;;5.35;1.40;;;;;;;8.86;55.55;102421.19;5070445;28;20064;-48
2021/04/26 08:22:22;;;;;;;4.60;1.20;;;;;;;8.86;55.91;102422.03;5069515;28;20049;-47
2021/04/26 08:24:49;;;;;;;5.75;1.08;;;;;;;8.88;56.16;102424.56;5069836;28;20045;-47
2021/04/26 08:27:17;;;;;;;4.43;0.85;;;;;;;8.92;56.17;102421.03;5070555;28;20072;-46
2021/04/26 08:29:44;;;;;;;6.22;1.20;;;;;;;8.89;55.95;102424.31;5069248;28;20126;-50
2021/04/26 08:32:11;;;;;;;4.85;1.05;;;;;;;8.89;55.60;102413.19;5070624;28;20102;-47
2021/04/26 08:34:38;;;;;;;5.57;1.10;;;;;;;8.86;55.84;102413.69;5070152;28;20036;-50
2021/04/26 08:37:06;;;;;;;3.95;0.93;;;;;;;8.87;55.69;102411.75;5069704;28;20040;-47
2021/04/26 08:39:33;;;;;;;4.15;0.95;;;;;;;8.90;55.38;102400.13;5070228;28;20049;-49
2021/04/26 08:42:00;;;;;;;4.07;1.20;;;;;;;8.93;55.38;102407.97;5069603;28;20044;-51
2021/04/26 08:44:27;;;;;;;3.28;1.10;;;;;;;8.95;54.77;102406.63;5069848;28;20147;-49
2021/04/26 08:46:56;;;;;;;3.83;0.70;;;;;;;8.95;54.86;102401.06;5069903;28;20118;-50
2021/04/26 08:49:24;;;;;;;4.93;0.93;;;;;;;8.97;54.87;102411.94;5069440;28;20047;-47
2021/04/26 08:51:51;;;;;;;3.10;1.00;;;;;;;8.98;54.69;102414.47;5070642;28;20074;-48
2021/04/26 08:54:19;;;;;;;4.28;1.10;;;;;;;9.00;54.32;102408.63;5071607;28;20123;-48
2021/04/26 08:56:47;;;;;;;3.33;0.80;;;;;;;9.03;54.73;102410.06;5072921;28;20086;-49
2021/04/26 08:59:14;;;;;;;6.10;1.10;;;;;;;9.05;54.20;102400.38;5073840;28;20048;-48
2021/04/26 09:01:47;;;;;;;5.00;1.38;;;;;;;9.08;54.38;102415.75;5073619;28;20051;-49
2021/04/26 09:04:15;;;;;;;4.90;1.13;;;;;;;9.05;54.27;102407.88;5073166;28;20433;-49
2021/04/26 09:06:58;;;;;;;4.68;1.00;;;;;;;9.09;53.72;102411.88;5073555;28;20052;-45
2021/04/26 09:09:40;;;;;;;5.13;0.93;;;;;;;9.12;53.85;102403.84;5055520;28;20052;-46
2021/04/26 09:12:10;;;;;;;3.20;0.75;;;;;;;9.20;54.05;102408.16;5073246;28;20087;-46
2021/04/26 09:14:43;;;;;;;3.05;0.80;;;;;;;9.33;53.62;102414.25;5055191;28;20477;-48
2021/04/26 09:17:43;;;;;;;5.43;1.33;;;;;;;9.45;52.07;102407.75;5072705;28;20098;-47
2021/04/26 09:20:31;;;;;;;2.95;1.00;;;;;;;9.52;52.11;102400.06;4991537;28;20054;-48
2021/04/26 09:23:00;;;;;;;3.58;1.02;;;;;;;9.58;52.37;102408.25;5063533;28;20405;-46
2021/04/26 09:25:33;;;;;;;4.03;0.90;;;;;;;9.68;51.93;102413.97;5072272;28;20056;-50
2021/04/26 09:28:01;;;;;;;;;;;;;;;9.70;50.26;102399.78;5073327;28;20059;-47
2021/04/26 09:30:51;;;;;;;4.57;0.90;;;;;;;9.79;50.74;102400.19;5073163;28;20025;-47
2021/04/26 09:33:27;;;;;;;3.95;0.90;;;;;;;9.86;50.66;102398.91;5072516;28;20044;-48
2021/04/26 09:36:13;;;;;;;5.53;1.15;;;;;;;9.85;49.90;102394.41;5072876;28;20070;-46
2021/04/26 09:38:43;;;;;;;7.50;1.10;;;;;;;10.06;50.04;102386.34;5067580;28;20113;-47
2021/04/26 09:41:17;;;;;;;4.90;1.10;;;;;;;10.14;49.32;102389.53;5073048;28;20125;-47
2021/04/26 09:43:46;;;;;;;6.43;1.10;;;;;;;10.46;49.56;102389.69;5072934;28;20033;-48
2021/04/26 09:46:14;;;;;;;4.60;1.10;;;;;;;11.25;49.28;102377.91;5071880;28;20052;-49
2021/04/26 09:48:42;;;;;;;4.53;0.88;;;;;;;11.78;46.91;102390.09;5072426;28;20110;-47
2021/04/26 09:51:13;;;;;;;4.80;1.00;;;;;;;12.21;45.81;102383.28;5072645;28;20044;-49
2021/04/26 09:53:53;;;;;;;5.18;1.27;;;;;;;12.80;44.89;102377.31;5072459;28;20072;-49
2021/04/26 09:56:22;;;;;;;4.07;1.10;;;;;;;13.26;43.99;102370.69;5072240;28;20055;-50
2021/04/26 09:58:52;;;;;;;5.07;1.02;;;;;;;13.61;43.01;102371.78;5072843;28;20052;-48
2021/04/26 10:01:21;;;;;;;4.00;1.10;;;;;;;13.75;42.77;102370.09;5071720;28;20040;-48
2021/04/26 10:03:52;;;;;;;5.10;0.90;;;;;;;13.67;41.51;102368.69;5061691;28;20044;-49
2021/04/26 10:06:24;;;;;;;3.42;1.00;;;;;;;13.76;42.51;102363.34;5071321;28;20045;-51
2021/04/26 10:08:54;;;;;;;3.38;0.80;;;;;;;13.77;41.56;102353.81;5072185;28;20113;-47
2021/04/26 10:11:23;;;;;;;4.28;1.00;;;;;;;13.81;41.90;102363.31;5072036;28;20124;-50
2021/04/26 10:13:58;;;;;;;5.15;0.82;;;;;;;13.86;41.55;102365.28;5071573;28;20095;-48
2021/04/26 10:16:36;;;;;;;4.30;1.00;;;;;;;13.92;40.00;102352.91;5072258;28;20049;-50
2021/04/26 10:19:06;;;;;;;4.20;0.90;;;;;;;13.85;41.68;102353.22;5070020;28;20501;-50
2021/04/26 10:21:35;;;;;;;4.80;1.00;;;;;;;14.19;41.29;102349.75;5071469;28;20490;-48
2021/04/26 10:24:15;;;;;;;4.28;1.20;;;;;;;14.62;39.99;102340.53;5068184;28;20424;-47
2021/04/26 10:26:49;;;;;;;4.40;1.08;;;;;;;15.01;40.03;102342.50;5071662;28;20049;-46
2021/04/26 10:29:23;;;;;;;3.60;0.98;;;;;;;15.45;39.21;102343.25;5067194;28;20401;-48
2021/04/26 10:32:08;;;;;;;6.00;1.25;;;;;;;15.44;38.11;102344.38;5071702;28;20472;-47
2021/04/26 10:34:54;;;;;;;4.15;0.98;;;;;;;15.19;38.77;102346.63;5069098;28;20044;-46
2021/04/26 10:37:24;;;;;;;4.38;0.90;;;;;;;15.15;38.98;102346.34;5070947;28;20098;-47
2021/04/26 10:40:08;;;;;;;5.68;0.98;;;;;;;14.90;38.34;102349.34;5071799;28;20051;-47
2021/04/26 10:42:36;;;;;;;4.32;0.88;;;;;;;14.97;39.51;102345.09;5071026;28;20037;-46
2021/04/26 10:45:05;;;;;;;4.60;0.90;;;;;;;15.36;38.45;102333.78;5070996;28;20048;-49
2021/04/26 10:47:36;;;;;;;4.25;1.00;;;;;;;15.48;38.04;102334.22;5071355;28;20585;-47
2021/04/26 10:50:34;;;;;;;3.28;0.80;;;;;;;15.43;36.66;102342.72;5071055;28;20052;-46
2021/04/26 10:53:03;;;;;;;4.40;1.10;;;;;;;15.55;37.43;102330.22;5071309;28;20474;-47
2021/04/26 10:55:53;;;;;;;3.92;0.73;;;;;;;15.23;36.40;102337.25;5071108;28;20405;-45
2021/04/26 10:58:34;;;;;;;5.47;0.80;;;;;;;14.82;37.96;102336.75;5071347;28;20068;-51
2021/04/26 11:01:02;;;;;;;3.75;0.80;;;;;;;14.52;39.06;102337.81;5071831;28;20476;-48
2021/04/26 11:03:36;;;;;;;3.28;0.80;;;;;;;14.25;38.82;102332.56;5070399;28;20037;-48
2021/04/26 11:06:15;;;;;;;4.60;0.90;;;;;;;14.04;39.37;102325.34;5071220;28;20127;-49
2021/04/26 11:08:46;;;;;;;5.57;0.90;;;;;;;13.87;40.11;102324.88;5071246;28;20102;-47
2021/04/26 11:11:17;;;;;;;4.10;1.00;;;;;;;13.99;40.03;102329.03;5070799;28;20053;-47
2021/04/26 11:13:52;;;;;;;3.08;0.80;;;;;;;13.85;39.85;102332.72;5071104;28;20121;-48
2021/04/26 11:16:39;;;;;;;3.92;0.75;;;;;;;13.76;40.32;102333.34;5062321;28;20486;-47
2021/04/26 11:19:10;;;;;;;4.47;0.90;;;;;;;13.84;40.51;102336.66;5071180;28;20046;-48
2021/04/26 11:21:58;;;;;;;3.72;0.90;;;;;;;13.87;39.88;102331.31;5071366;28;20480;-47
2021/04/26 11:25:04;;;;;;;5.22;0.82;;;;;;;14.22;38.78;102316.28;5070164;28;20055;-46
2021/04/26 11:27:55;;;;;;;5.80;1.17;;;;;;;14.01;37.94;102323.13;5071389;28;20044;-46
2021/04/26 11:30:27;;;;;;;5.20;1.00;;;;;;;13.48;40.44;102330.28;5070552;28;20048;-47
2021/04/26 11:33:20;;;;;;;4.15;0.73;;;;;;;13.27;40.43;102316.31;5070393;28;20041;-47
2021/04/26 11:36:21;;;;;;;3.58;0.70;;;;;;;13.52;39.95;102314.59;5070778;28;20052;-46
2021/04/26 11:38:49;;;;;;;4.15;0.98;;;;;;;13.62;40.44;102308.94;5070684;28;20051;-48
2021/04/26 11:41:17;;;;;;;4.35;0.80;;;;;;;13.72;40.58;102311.72;5070567;28;20048;-48
2021/04/26 11:43:45;;;;;;;4.60;1.00;;;;;;;13.96;39.90;102307.16;5070665;28;20051;-49
2021/04/26 11:46:12;;;;;;;2.08;0.68;;;;;;;14.05;39.14;102296.16;5069856;28;20557;-49
2021/04/26 11:48:39;;;;;;;3.55;1.10;;;;;;;13.82;39.31;102310.84;5070904;28;20044;-49
2021/04/26 11:51:06;;;;;;;4.18;1.00;;;;;;;13.64;39.30;102307.53;5070651;28;20060;-46
2021/04/26 11:53:33;;;;;;;3.42;1.10;;;;;;;13.59;39.16;102296.31;5052493;28;20048;-52